Time;durP1;ratioP1;P1;durP2;ratioP2;P2;SDS_P1;SDS_P2;PMS_P1;PMS_P2;Temp;Humidity;BMP_temperature;BMP_pressure;BME280_temperature;BME280_humidity;BME280_pressure;Samples;Min_cycle;Max_cycle;Signal;HPM_P1;HPM_P2
2021/12/18 10:00:53;;;;;;;12.90;2.93;;;;;;;14.82;96.96;102134.88;5904560;24;20439;-95
2021/12/18 11:16:15;;;;;;;17.30;2.70;;;;;;;16.08;92.49;102159.50;4967699;28;20465;-95
2021/12/18 16:56:14;;;;;;;4.73;1.83;;;;;;;15.95;88.26;101948.94;6054118;23;2610626;-93
2021/12/18 16:58:42;;;;;;;6.50;2.53;;;;;;;15.82;88.97;101947.75;6092505;23;20203;-94
2021/12/18 17:05:41;;;;;;;17.63;2.43;;;;;;;15.77;89.90;101958.56;6180173;23;20388;-93
2021/12/18 17:08:12;;;;;;;7.00;2.43;;;;;;;15.71;90.34;101959.34;6164034;23;20412;-92
2021/12/18 17:14:27;;;;;;;15.53;2.60;;;;;;;15.45;91.12;101943.34;6165041;23;20425;-93
2021/12/18 17:16:56;;;;;;;17.10;8.60;;;;;;;15.47;91.39;101951.41;6091299;23;20488;-93
2021/12/18 17:19:29;;;;;;;11.47;4.53;;;;;;;15.34;91.86;101945.78;6117850;23;20462;-93
2021/12/18 17:21:59;;;;;;;15.37;4.37;;;;;;;15.35;92.44;101953.00;6092464;23;20400;-92
2021/12/18 17:24:46;;;;;;;14.43;4.47;;;;;;;15.35;92.23;101966.78;6090536;23;20449;-93
2021/12/18 17:27:14;;;;;;;13.20;2.77;;;;;;;15.25;92.72;101953.31;6114677;23;20796;-93
2021/12/18 17:29:41;;;;;;;9.67;3.27;;;;;;;15.25;93.00;101963.47;6088875;23;20922;-91
2021/12/18 17:32:09;;;;;;;13.40;4.10;;;;;;;15.15;92.87;101953.63;6084942;23;20401;-92
2021/12/18 17:34:37;;;;;;;17.37;5.33;;;;;;;15.14;93.49;101951.06;6084723;23;20489;-92
2021/12/18 17:37:05;;;;;;;10.83;3.97;;;;;;;15.12;93.70;101959.53;6084554;23;20417;-92
2021/12/18 17:39:33;;;;;;;11.60;3.73;;;;;;;15.05;94.06;101952.22;6084828;23;20445;-91
2021/12/18 17:42:02;;;;;;;10.67;3.17;;;;;;;15.05;94.30;101953.06;6084361;23;20417;-90
2021/12/18 17:44:32;;;;;;;18.73;4.50;;;;;;;15.02;94.60;101953.47;6087123;23;20455;-92
2021/12/18 17:47:00;;;;;;;16.03;4.10;;;;;;;14.91;94.78;101937.44;6084469;23;20413;-91
2021/12/18 17:49:29;;;;;;;17.10;5.80;;;;;;;14.88;95.07;101943.34;6085345;23;20468;-92
2021/12/18 17:52:00;;;;;;;17.47;3.13;;;;;;;14.92;95.13;101952.94;6086969;23;20745;-93
2021/12/18 17:54:28;;;;;;;12.07;3.43;;;;;;;14.88;95.68;101948.84;6084732;23;20433;-91
2021/12/18 17:56:59;;;;;;;17.70;4.87;;;;;;;14.90;95.63;101954.16;6107183;23;20413;-92
2021/12/18 17:59:37;;;;;;;14.43;4.87;;;;;;;14.90;95.63;101956.91;6112222;23;20773;-92
2021/12/18 18:02:10;;;;;;;14.53;4.97;;;;;;;14.90;95.60;101952.25;6108208;23;20409;-92
2021/12/18 18:04:45;;;;;;;18.70;5.00;;;;;;;14.77;95.71;101933.69;6084784;23;20469;-91
2021/12/18 18:07:33;;;;;;;18.10;4.13;;;;;;;14.85;95.59;101940.97;6108096;23;20415;-92
2021/12/18 18:10:02;;;;;;;15.03;5.13;;;;;;;14.80;95.77;101947.06;6106850;23;20419;-91
2021/12/18 18:12:30;;;;;;;10.60;3.40;;;;;;;14.73;95.96;101942.50;6085196;23;20409;-91
2021/12/18 18:15:07;;;;;;;13.57;3.27;;;;;;;14.75;95.88;101948.69;6106139;23;20461;-91
2021/12/18 18:17:37;;;;;;;15.17;3.80;;;;;;;14.75;96.17;101951.44;6108687;23;20370;-91
2021/12/18 18:20:31;;;;;;;24.63;3.60;;;;;;;14.70;95.79;101953.91;6083862;23;20473;-92
2021/12/18 18:23:00;;;;;;;10.10;3.07;;;;;;;14.60;95.77;101945.09;6131175;23;20409;-91
2021/12/18 18:25:47;;;;;;;14.53;4.20;;;;;;;14.49;95.54;101933.50;6107520;23;20500;-92
2021/12/18 18:28:15;;;;;;;9.77;3.27;;;;;;;14.59;95.68;101948.91;6131952;23;20476;-88
2021/12/18 18:30:44;;;;;;;11.60;4.17;;;;;;;14.57;95.97;101953.72;6107406;23;20767;-89
2021/12/18 18:33:29;;;;;;;15.80;3.97;;;;;;;14.50;95.50;101954.47;6113027;23;20456;-88
2021/12/18 18:36:03;;;;;;;19.47;5.13;;;;;;;14.34;95.73;101940.03;6131794;23;20397;-91
2021/12/18 18:38:34;;;;;;;19.80;6.30;;;;;;;14.40;95.72;101961.28;6108181;23;20473;-80
2021/12/18 18:41:06;;;;;;;41.17;13.73;;;;;;;14.34;95.33;101956.53;6106234;23;20409;-82
2021/12/18 18:43:35;;;;;;;27.80;9.30;;;;;;;14.21;95.20;101953.59;6108347;23;20477;-81
2021/12/18 18:48:32;;;;;;;22.60;5.50;;;;;;;14.04;95.33;101955.66;6106279;23;20405;-82
2021/12/18 18:51:00;;;;;;;41.43;16.10;;;;;;;13.98;95.75;101950.91;6106684;23;20448;-81
2021/12/18 18:53:28;;;;;;;53.97;20.30;;;;;;;13.99;95.67;101960.84;6129322;23;20397;-84
2021/12/18 18:55:56;;;;;;;47.80;17.33;;;;;;;13.95;95.94;101959.50;6105240;23;20484;-83
2021/12/18 18:58:23;;;;;;;22.43;8.00;;;;;;;13.84;95.26;101949.84;6094779;23;20407;-91
2021/12/18 19:00:51;;;;;;;18.93;6.90;;;;;;;13.73;95.85;101947.50;6105177;23;20421;-88
2021/12/18 19:03:22;;;;;;;19.70;7.80;;;;;;;13.79;95.84;101966.03;6106120;23;20409;-88
2021/12/18 19:05:51;;;;;;;29.20;10.07;;;;;;;13.64;95.96;101951.38;6082558;23;20406;-88
2021/12/18 19:08:19;;;;;;;24.50;8.10;;;;;;;13.64;95.71;101951.38;6129848;23;20472;-87
2021/12/18 19:10:48;;;;;;;42.97;11.10;;;;;;;13.61;95.92;101958.09;6106219;23;20441;-88
2021/12/18 19:13:16;;;;;;;37.37;8.73;;;;;;;13.61;96.46;101958.09;6106725;23;20402;-88
2021/12/18 19:15:44;;;;;;;32.40;9.37;;;;;;;13.62;95.87;101959.81;6106416;23;20402;-89
2021/12/18 19:18:16;;;;;;;21.50;8.97;;;;;;;13.63;95.96;101969.75;6106182;23;20390;-88
2021/12/18 19:20:49;;;;;;;19.80;6.90;;;;;;;13.60;95.99;101967.38;6129301;23;20468;-88
2021/12/18 19:23:16;;;;;;;19.60;6.50;;;;;;;13.47;95.92;101953.38;6106863;23;20429;-88
2021/12/18 19:25:47;;;;;;;14.50;5.47;;;;;;;13.48;95.97;101964.19;6106637;23;20464;-88
2021/12/18 19:28:15;;;;;;;22.77;5.50;;;;;;;13.44;95.51;101962.88;6106583;23;20477;-88
2021/12/18 19:30:43;;;;;;;55.77;25.70;;;;;;;13.38;95.98;101963.59;6105727;23;20402;-86
2021/12/18 19:33:11;;;;;;;56.67;25.80;;;;;;;13.34;95.73;101966.88;6082208;23;20397;-88
2021/12/18 19:35:40;;;;;;;31.80;12.00;;;;;;;13.28;95.57;101968.44;6106612;23;20469;-88
2021/12/18 19:38:07;;;;;;;16.70;7.17;;;;;;;13.27;95.76;101960.41;6082431;23;20484;-88
2021/12/18 19:40:36;;;;;;;14.80;5.87;;;;;;;13.27;95.73;101963.16;6105666;23;20536;-88
2021/12/18 19:43:04;;;;;;;23.17;10.97;;;;;;;13.29;95.77;101975.66;6105661;23;20958;-88
2021/12/18 19:45:32;;;;;;;18.17;9.90;;;;;;;13.21;95.53;101955.66;6105943;23;20401;-87
2021/12/18 19:48:01;;;;;;;17.27;7.23;;;;;;;13.23;95.76;101962.66;6081693;23;20472;-88
2021/12/18 19:50:29;;;;;;;20.47;7.40;;;;;;;13.22;95.22;101966.44;6130087;23;20394;-88
2021/12/18 19:52:58;;;;;;;17.80;8.17;;;;;;;13.13;95.49;101949.13;6105141;23;20488;-87
2021/12/18 19:55:27;;;;;;;19.10;7.87;;;;;;;13.22;95.58;101962.84;6106157;23;20429;-88
2021/12/18 19:57:55;;;;;;;20.20;7.60;;;;;;;13.19;95.81;101952.22;6105175;23;20409;-88
2021/12/18 20:00:25;;;;;;;19.80;7.90;;;;;;;13.20;95.14;101962.16;6106081;23;20497;-88
2021/12/18 20:05:31;;;;;;;19.97;7.13;;;;;;;13.17;95.63;101954.28;6106589;23;20922;-87
2021/12/18 20:08:00;;;;;;;11.53;6.50;;;;;;;13.18;95.43;101953.25;6081914;23;20440;-86
2021/12/18 20:10:29;;;;;;;15.40;6.40;;;;;;;13.17;95.15;101965.28;6106395;23;20472;-87
2021/12/18 20:12:59;;;;;;;21.73;5.27;;;;;;;13.14;95.42;101966.44;6070865;23;20425;-87
2021/12/18 20:15:27;;;;;;;11.57;5.03;;;;;;;13.17;95.70;101959.78;6129707;23;20900;-86
2021/12/18 20:17:55;;;;;;;12.33;4.67;;;;;;;13.07;95.48;101946.28;6105741;23;20398;-86
2021/12/18 20:20:25;;;;;;;7.83;3.73;;;;;;;13.15;95.12;101951.72;6106284;23;20441;-86
2021/12/18 20:22:54;;;;;;;13.37;5.40;;;;;;;13.04;95.07;101931.03;6106171;23;20405;-86
2021/12/18 20:25:23;;;;;;;18.03;6.43;;;;;;;13.12;94.91;101955.66;6082702;23;20405;-86
2021/12/18 20:27:53;;;;;;;28.80;10.20;;;;;;;13.10;94.95;101960.47;6107014;23;20779;-86
2021/12/18 20:30:21;;;;;;;10.47;5.73;;;;;;;13.09;95.45;101958.75;6105743;23;20417;-86
2021/12/18 20:32:49;;;;;;;16.30;5.30;;;;;;;13.10;95.77;101957.72;6081736;23;20409;-89
2021/12/18 20:35:18;;;;;;;10.60;5.00;;;;;;;13.04;95.34;101950.22;6105861;23;20467;-86
2021/12/18 20:37:50;;;;;;;10.17;4.83;;;;;;;13.02;95.19;101949.56;6080928;23;20794;-86
2021/12/18 20:40:26;;;;;;;11.50;5.20;;;;;;;13.05;94.95;101957.44;6106605;23;20441;-86
2021/12/18 20:42:56;;;;;;;19.97;5.90;;;;;;;12.99;95.33;101958.13;6129534;23;20412;-86
2021/12/18 20:45:25;;;;;;;13.70;5.60;;;;;;;12.99;95.37;101957.28;6105718;23;20409;-86
2021/12/18 20:47:56;;;;;;;17.50;4.43;;;;;;;12.96;95.83;101954.91;6106912;23;20401;-87
2021/12/18 20:50:24;;;;;;;14.93;4.47;;;;;;;12.94;95.43;101949.59;6082149;23;21012;-87
2021/12/18 20:52:52;;;;;;;8.70;3.77;;;;;;;12.88;95.36;101942.09;6105163;23;20413;-86
2021/12/18 20:55:21;;;;;;;10.50;3.17;;;;;;;12.91;95.25;101958.16;6105444;23;20430;-86
2021/12/18 20:57:50;;;;;;;9.63;3.43;;;;;;;12.86;95.33;101946.03;6106249;23;20410;-86
2021/12/18 21:00:21;;;;;;;16.73;4.30;;;;;;;12.79;95.73;101940.41;6106019;23;20446;-86
2021/12/18 21:02:49;;;;;;;15.10;3.83;;;;;;;12.75;95.81;101928.06;6082592;23;20422;-86
2021/12/18 21:05:17;;;;;;;13.23;5.13;;;;;;;12.69;95.32;101937.03;6106393;23;20408;-86
2021/12/18 21:07:47;;;;;;;11.30;4.03;;;;;;;12.63;96.04;101941.34;6107054;23;20409;-86
2021/12/18 21:10:18;;;;;;;16.03;5.17;;;;;;;12.60;96.23;101935.34;6085898;23;20402;-86
2021/12/18 21:12:46;;;;;;;22.40;10.80;;;;;;;12.57;96.05;101946.69;6083697;23;20413;-86
2021/12/18 21:15:16;;;;;;;31.03;13.73;;;;;;;12.49;96.39;101933.00;6107612;23;20421;-85
2021/12/18 21:17:47;;;;;;;34.23;15.20;;;;;;;12.48;96.77;101939.53;6108122;23;20406;-86
2021/12/18 21:20:15;;;;;;;22.90;7.90;;;;;;;12.43;96.82;101946.38;6107584;23;20518;-86
2021/12/18 21:22:43;;;;;;;18.47;6.23;;;;;;;12.39;96.98;101950.50;6107386;23;20400;-86
2021/12/18 21:25:10;;;;;;;20.67;7.33;;;;;;;12.36;96.88;101928.06;6107427;23;20406;-86
2021/12/18 21:27:38;;;;;;;16.77;7.10;;;;;;;12.38;97.18;101954.28;6107301;23;20488;-87
2021/12/18 21:30:08;;;;;;;14.93;6.33;;;;;;;12.32;97.09;101941.25;6107836;23;20393;-87
2021/12/18 21:32:36;;;;;;;19.90;6.43;;;;;;;12.27;96.90;101940.97;6108141;23;20480;-86
2021/12/18 21:37:34;;;;;;;13.50;5.47;;;;;;;12.06;96.24;101933.31;6107098;23;20417;-86
2021/12/18 21:40:03;;;;;;;13.93;5.30;;;;;;;11.97;97.00;101936.22;6108200;23;20534;-86
2021/12/18 21:42:31;;;;;;;15.40;4.00;;;;;;;11.98;97.38;101935.19;6107546;23;20429;-88
2021/12/18 21:44:59;;;;;;;15.80;4.50;;;;;;;11.96;97.67;101931.75;6107566;23;20406;-86
2021/12/18 21:47:27;;;;;;;7.50;3.77;;;;;;;11.99;98.05;101932.28;6107545;23;20397;-88
2021/12/18 21:49:54;;;;;;;12.23;3.80;;;;;;;11.97;97.95;101928.00;6106907;23;20896;-86
2021/12/18 21:52:22;;;;;;;12.30;4.90;;;;;;;11.97;97.39;101922.53;6107085;23;20406;-86
2021/12/18 21:54:50;;;;;;;14.03;4.53;;;;;;;11.99;97.89;101917.72;6105853;23;20476;-86
2021/12/18 21:57:20;;;;;;;9.93;4.07;;;;;;;12.02;97.60;101926.44;6083757;23;20881;-86
2021/12/18 21:59:49;;;;;;;9.73;3.67;;;;;;;12.00;97.95;101924.91;6131174;23;20449;-87
2021/12/18 22:02:18;;;;;;;10.50;3.80;;;;;;;11.98;97.70;101921.50;6084963;23;20864;-87
2021/12/18 22:04:47;;;;;;;10.10;4.33;;;;;;;11.97;97.40;101922.53;6106310;23;20476;-87
2021/12/18 22:07:15;;;;;;;15.03;4.87;;;;;;;11.94;97.63;101922.88;6131415;23;20493;-87
2021/12/18 22:09:43;;;;;;;13.40;5.83;;;;;;;11.93;97.80;101926.66;6107011;23;20390;-87
2021/12/18 22:12:10;;;;;;;14.77;5.90;;;;;;;11.93;97.82;101934.88;6106705;23;20959;-87
2021/12/18 22:14:39;;;;;;;12.73;5.47;;;;;;;11.96;97.66;101926.28;6083184;23;20397;-86
2021/12/18 22:17:07;;;;;;;12.90;4.90;;;;;;;11.95;97.68;101919.94;6130731;23;20449;-86
2021/12/18 22:19:34;;;;;;;18.73;6.70;;;;;;;12.04;97.57;101923.53;6106533;23;21010;-86
2021/12/18 22:22:14;;;;;;;12.03;4.93;;;;;;;12.08;97.68;101908.47;6107639;23;20404;-87
2021/12/18 22:24:43;;;;;;;16.20;5.67;;;;;;;12.17;96.98;101912.88;6156816;23;20406;-86
2021/12/18 22:27:10;;;;;;;12.50;5.30;;;;;;;12.20;96.60;101904.31;6130495;23;20801;-87
2021/12/18 22:29:38;;;;;;;20.77;7.90;;;;;;;12.21;96.18;101900.53;6106525;23;20728;-86
2021/12/18 22:32:08;;;;;;;19.53;6.83;;;;;;;12.24;95.65;101902.94;6107263;23;20922;-87
2021/12/18 22:34:37;;;;;;;17.13;7.67;;;;;;;12.32;95.00;101893.81;6131235;23;20412;-87
2021/12/18 22:37:05;;;;;;;21.30;8.30;;;;;;;12.33;95.27;101893.63;6107041;23;20966;-86
2021/12/18 22:39:33;;;;;;;21.60;8.77;;;;;;;12.37;94.68;101897.75;6083160;23;20919;-86
2021/12/18 22:42:01;;;;;;;24.53;8.97;;;;;;;12.39;94.71;101895.69;6106322;23;20496;-87
2021/12/18 22:44:28;;;;;;;25.70;6.23;;;;;;;12.37;94.98;101905.09;6106658;23;20725;-86
2021/12/18 22:46:58;;;;;;;10.00;4.60;;;;;;;12.36;94.81;101896.03;6106473;23;20413;-86
2021/12/18 22:49:26;;;;;;;12.13;5.60;;;;;;;12.38;94.46;101910.41;6083585;23;20918;-87
2021/12/18 22:51:54;;;;;;;16.83;5.30;;;;;;;12.39;94.67;101912.13;6105936;23;20468;-87
2021/12/18 22:54:21;;;;;;;10.73;5.40;;;;;;;12.37;94.33;101914.19;6106868;23;20449;-86
2021/12/18 22:56:49;;;;;;;9.00;4.53;;;;;;;12.36;94.48;101912.47;6156630;23;20494;-87
2021/12/18 22:59:17;;;;;;;19.90;6.20;;;;;;;12.33;94.37;101906.50;6105637;23;20813;-87
2021/12/18 23:01:44;;;;;;;12.47;4.50;;;;;;;12.30;94.17;101895.91;6082199;23;20440;-87
2021/12/18 23:04:12;;;;;;;11.30;4.43;;;;;;;12.31;94.73;101908.56;6106695;23;20405;-87
2021/12/18 23:06:40;;;;;;;12.00;5.23;;;;;;;12.32;94.71;101904.78;6129881;23;20412;-86
2021/12/18 23:09:11;;;;;;;15.70;5.30;;;;;;;12.27;95.05;101894.38;6106060;23;20406;-86
2021/12/18 23:11:47;;;;;;;11.60;4.47;;;;;;;12.33;95.22;101899.13;6130350;23;20406;-86
2021/12/18 23:21:55;;;;;;;14.97;5.00;;;;;;;12.32;95.67;101883.69;6105073;23;20405;-86
2021/12/18 23:24:23;;;;;;;14.83;4.27;;;;;;;12.34;95.20;101889.88;6105251;23;20739;-86
2021/12/18 23:26:51;;;;;;;9.13;3.40;;;;;;;12.30;95.18;101880.31;6105636;23;20464;-86
2021/12/18 23:29:22;;;;;;;11.40;4.40;;;;;;;12.30;95.85;101879.47;6130491;23;20421;-86
2021/12/18 23:31:51;;;;;;;13.43;4.77;;;;;;;12.21;95.88;101859.44;6106252;23;20436;-86
2021/12/18 23:34:19;;;;;;;15.67;4.60;;;;;;;12.30;96.56;101880.31;6130543;23;20406;-86
2021/12/18 23:36:47;;;;;;;9.20;4.10;;;;;;;12.29;96.42;101867.63;6105932;23;20398;-86
2021/12/18 23:39:40;;;;;;;12.60;4.90;;;;;;;12.33;96.89;101877.19;6113933;23;20390;-86
2021/12/18 23:42:08;;;;;;;16.33;4.97;;;;;;;12.31;97.01;101871.06;6107220;23;20408;-86
2021/12/18 23:47:23;;;;;;;10.80;4.03;;;;;;;12.32;97.46;101860.91;6133328;23;20410;-86
2021/12/18 23:49:50;;;;;;;18.53;3.93;;;;;;;12.34;97.75;101858.84;6105746;23;20449;-87
2021/12/18 23:52:18;;;;;;;8.20;4.30;;;;;;;12.38;97.82;101865.69;6105924;23;20452;-86
2021/12/18 23:54:46;;;;;;;16.17;5.47;;;;;;;12.38;97.84;101866.56;6105451;23;20766;-86
2021/12/18 23:57:14;;;;;;;14.70;4.90;;;;;;;12.37;98.28;101862.09;6105744;23;20769;-86
2021/12/18 23:59:42;;;;;;;16.20;4.80;;;;;;;12.38;97.96;101872.03;6129680;23;20406;-86
